Time;durP1;ratioP1;P1;durP2;ratioP2;P2;SDS_P1;SDS_P2;PMS_P1;PMS_P2;Temp;Humidity;BMP_temperature;BMP_pressure;BME280_temperature;BME280_humidity;BME280_pressure;Samples;Min_cycle;Max_cycle;Signal;HPM_P1;HPM_P2
2021/09/19 00:00:54;;;;;;;10.23;9.23;;;;;;;13.79;96.03;98468.69;4930867;28;102824;-69
2021/09/19 00:03:23;;;;;;;13.13;12.03;;;;;;;13.72;96.08;98467.56;4930746;28;102598;-69
2021/09/19 00:05:53;;;;;;;12.70;11.53;;;;;;;13.44;97.97;98460.38;4934681;28;103231;-68
2021/09/19 00:08:21;;;;;;;14.03;12.80;;;;;;;13.32;98.99;98452.50;4931002;28;102691;-68
2021/09/19 00:10:50;;;;;;;13.83;12.47;;;;;;;13.14;100.00;98454.09;4934085;28;102697;-68
2021/09/19 00:13:19;;;;;;;13.70;12.40;;;;;;;13.20;100.00;98452.72;4939395;28;104284;-69
2021/09/19 00:15:47;;;;;;;14.03;12.73;;;;;;;13.25;100.00;98448.69;4934024;28;103384;-69
2021/09/19 00:18:17;;;;;;;13.73;12.53;;;;;;;13.30;99.38;98456.25;4931607;28;102972;-68
2021/09/19 00:20:45;;;;;;;14.57;13.23;;;;;;;13.32;98.78;98456.97;4930020;28;102744;-69
2021/09/19 00:23:15;;;;;;;15.17;13.57;;;;;;;13.33;98.73;98461.31;4935494;28;103970;-69
2021/09/19 00:25:43;;;;;;;14.60;13.20;;;;;;;13.34;98.31;98450.53;4928336;28;102996;-69
2021/09/19 00:28:11;;;;;;;14.70;13.50;;;;;;;13.24;98.83;98451.47;4920722;28;102649;-68
2021/09/19 00:30:39;;;;;;;15.77;14.27;;;;;;;13.12;99.37;98449.88;4938511;28;102649;-68
2021/09/19 00:33:07;;;;;;;15.43;13.93;;;;;;;12.91;100.00;98444.59;4938341;28;103444;-68
2021/09/19 00:35:35;;;;;;;16.17;14.77;;;;;;;12.83;100.00;98447.03;4922844;28;103337;-68
2021/09/19 00:38:04;;;;;;;16.60;15.10;;;;;;;12.69;100.00;98440.28;4939361;28;102637;-68
2021/09/19 00:40:33;;;;;;;14.43;13.13;;;;;;;12.77;100.00;98437.00;4941857;28;102766;-68
2021/09/19 00:43:01;;;;;;;16.03;14.40;;;;;;;12.79;100.00;98437.69;4940485;28;103291;-70
2021/09/19 00:45:29;;;;;;;13.90;12.60;;;;;;;12.77;100.00;98442.28;4936687;28;103367;-69
2021/09/19 00:47:58;;;;;;;14.33;13.03;;;;;;;12.86;100.00;98430.88;4942934;28;102760;-68
2021/09/19 00:50:27;;;;;;;14.47;13.17;;;;;;;13.10;99.63;98431.47;4939423;28;102715;-69
2021/09/19 00:52:55;;;;;;;10.00;9.10;;;;;;;13.30;98.56;98435.84;4939711;28;103943;-69
2021/09/19 00:55:23;;;;;;;14.50;13.27;;;;;;;13.05;99.36;98433.63;4935370;28;103232;-68
2021/09/19 00:57:54;;;;;;;16.00;14.50;;;;;;;12.70;100.00;98433.16;4914669;28;102806;-69
2021/09/19 01:00:25;;;;;;;14.83;13.43;;;;;;;12.80;100.00;98432.25;4935290;28;102681;-68
2021/09/19 01:02:53;;;;;;;12.27;11.27;;;;;;;12.87;100.00;98429.91;4913131;28;103260;-68
2021/09/19 01:05:23;;;;;;;15.07;13.77;;;;;;;12.80;100.00;98429.59;4939749;28;103917;-67
2021/09/19 01:07:52;;;;;;;15.53;13.70;;;;;;;12.68;100.00;98422.72;4940186;28;103038;-67
2021/09/19 01:10:24;;;;;;;14.27;12.87;;;;;;;12.81;100.00;98422.50;4938411;28;102746;-67
2021/09/19 01:12:56;;;;;;;9.97;9.07;;;;;;;13.10;99.30;98422.66;4922644;28;103324;-67
2021/09/19 01:15:25;;;;;;;10.03;9.13;;;;;;;13.23;97.36;98418.81;4932273;28;103371;-67
2021/09/19 01:17:55;;;;;;;7.80;7.10;;;;;;;13.35;96.39;98416.91;4937091;28;102661;-67
2021/09/19 01:20:24;;;;;;;13.10;10.80;;;;;;;13.34;95.04;98410.75;4939287;28;103015;-68
2021/09/19 01:23:00;;;;;;;10.80;9.87;;;;;;;13.36;95.10;98408.78;4935767;28;103294;-67
2021/09/19 01:25:30;;;;;;;11.53;10.50;;;;;;;13.20;95.67;98413.78;4920112;28;103214;-67
2021/09/19 01:27:58;;;;;;;9.53;8.63;;;;;;;13.19;96.64;98406.78;4922688;28;102603;-68
2021/09/19 01:30:26;;;;;;;10.23;9.33;;;;;;;13.24;96.30;98409.88;4941711;28;103836;-68
2021/09/19 01:32:54;;;;;;;12.90;11.80;;;;;;;12.99;97.23;98410.31;4920395;28;103441;-68
2021/09/19 01:35:22;;;;;;;11.13;10.23;;;;;;;12.99;98.72;98402.34;4938418;28;103238;-69
2021/09/19 01:37:50;;;;;;;13.20;12.10;;;;;;;12.87;98.94;98400.75;4940826;28;102930;-69
2021/09/19 01:40:18;;;;;;;12.63;11.63;;;;;;;12.95;98.57;98400.94;4940264;28;102723;-69
2021/09/19 01:42:47;;;;;;;8.80;8.10;;;;;;;13.09;97.54;98399.75;4935876;28;103343;-68
2021/09/19 01:45:16;;;;;;;9.17;8.47;;;;;;;13.17;96.15;98391.97;4922590;28;103224;-68
2021/09/19 01:47:44;;;;;;;7.90;7.30;;;;;;;13.19;95.73;98388.22;4936806;28;102703;-68
2021/09/19 01:50:13;;;;;;;6.20;5.70;;;;;;;13.28;94.63;98394.53;4921788;28;103951;-68
2021/09/19 01:52:41;;;;;;;6.97;6.37;;;;;;;13.27;94.14;98388.41;4938926;28;103322;-69
2021/09/19 01:55:09;;;;;;;7.07;6.53;;;;;;;13.27;93.80;98393.72;4923891;28;105419;-69
2021/09/19 01:57:37;;;;;;;6.77;6.23;;;;;;;13.30;93.17;98392.59;4938815;28;102707;-69
2021/09/19 02:00:09;;;;;;;9.20;8.40;;;;;;;13.33;92.84;98384.38;4940206;28;102725;-69
2021/09/19 02:02:37;;;;;;;11.43;10.00;;;;;;;13.07;93.60;98376.03;4916157;28;104287;-69
2021/09/19 02:05:08;;;;;;;13.10;12.00;;;;;;;12.71;96.50;98376.53;4938626;28;103686;-68
2021/09/19 02:07:38;;;;;;;11.30;10.20;;;;;;;12.65;98.30;98379.72;4939168;28;103693;-68
2021/09/19 02:10:09;;;;;;;10.50;9.57;;;;;;;12.71;97.95;98371.25;4939179;28;102755;-68
2021/09/19 02:12:38;;;;;;;9.10;8.30;;;;;;;12.72;97.80;98371.09;4934011;28;103312;-69
2021/09/19 02:15:10;;;;;;;9.00;8.10;;;;;;;12.82;96.91;98365.84;4935138;28;103257;-69
2021/09/19 02:17:38;;;;;;;7.40;6.77;;;;;;;12.90;96.20;98371.34;4939143;28;102747;-67
2021/09/19 02:20:09;;;;;;;6.93;6.33;;;;;;;12.98;95.15;98370.66;4935066;28;103905;-68
2021/09/19 02:22:37;;;;;;;11.60;10.60;;;;;;;12.80;94.56;98365.97;4920704;28;103116;-68
2021/09/19 02:25:07;;;;;;;12.80;11.70;;;;;;;12.42;97.83;98355.19;4932909;28;103259;-71
2021/09/19 02:27:36;;;;;;;11.63;10.63;;;;;;;12.30;99.29;98361.50;4913945;28;102999;-69
2021/09/19 02:30:06;;;;;;;12.80;11.50;;;;;;;12.18;99.75;98350.13;4918014;28;102723;-69
2021/09/19 02:32:36;;;;;;;11.47;10.47;;;;;;;12.31;99.05;98351.75;4916807;28;103351;-69
2021/09/19 02:35:06;;;;;;;11.00;10.00;;;;;;;12.34;99.16;98364.75;4915814;28;103265;-68
2021/09/19 02:37:34;;;;;;;6.97;6.37;;;;;;;12.55;97.89;98362.91;4914299;28;102584;-68
2021/09/19 02:40:02;;;;;;;7.63;7.03;;;;;;;12.63;96.37;98360.47;4916923;28;103657;-68
2021/09/19 02:42:30;;;;;;;7.63;7.00;;;;;;;12.67;95.51;98353.91;4913765;28;103441;-67
2021/09/19 02:44:58;;;;;;;8.37;7.67;;;;;;;12.68;94.33;98356.44;4898790;28;103059;-69
2021/09/19 02:47:26;;;;;;;6.70;6.00;;;;;;;12.67;95.30;98340.66;4918971;28;103115;-69
2021/09/19 02:49:55;;;;;;;6.40;5.80;;;;;;;12.75;94.67;98349.63;4915876;28;103855;-67
2021/09/19 02:52:23;;;;;;;4.97;4.63;;;;;;;12.81;93.53;98348.25;4894284;28;103277;-67
2021/09/19 02:54:51;;;;;;;8.10;7.40;;;;;;;12.80;92.90;98349.22;4897144;28;103205;-68
2021/09/19 02:57:19;;;;;;;7.53;6.93;;;;;;;12.63;94.61;98342.72;4917311;28;103156;-67
2021/09/19 02:59:47;;;;;;;11.33;10.10;;;;;;;12.05;97.56;98349.50;4918832;28;103839;-67
2021/09/19 03:02:15;;;;;;;9.40;8.50;;;;;;;11.90;99.85;98337.53;4916281;28;103314;-67
2021/09/19 03:04:43;;;;;;;9.80;9.00;;;;;;;11.89;100.00;98332.38;4916524;28;103262;-68
2021/09/19 03:07:13;;;;;;;9.87;8.87;;;;;;;11.81;99.18;98334.81;4915590;28;102691;-67
2021/09/19 03:09:41;;;;;;;11.73;10.60;;;;;;;11.49;100.00;98327.69;4897186;28;103437;-68
2021/09/19 03:12:09;;;;;;;10.37;9.37;;;;;;;11.58;100.00;98329.59;4897309;28;104225;-66
2021/09/19 03:14:37;;;;;;;10.93;9.93;;;;;;;11.67;100.00;98328.00;4917838;28;103252;-66
2021/09/19 03:17:05;;;;;;;9.83;9.03;;;;;;;11.70;100.00;98322.47;4918611;28;102630;-67
2021/09/19 03:19:33;;;;;;;7.70;7.10;;;;;;;11.94;100.00;98331.03;4921282;28;102634;-66
2021/09/19 03:22:01;;;;;;;7.53;7.00;;;;;;;12.05;97.89;98317.72;4918829;28;103990;-66
2021/09/19 03:24:30;;;;;;;9.40;8.50;;;;;;;12.00;96.18;98309.34;4914787;28;103036;-66
2021/09/19 03:26:58;;;;;;;9.50;8.70;;;;;;;11.86;97.44;98317.59;4917632;28;103239;-67
2021/09/19 03:29:26;;;;;;;8.17;7.47;;;;;;;11.86;98.27;98322.88;4938554;28;102983;-66
2021/09/19 03:31:54;;;;;;;6.97;6.37;;;;;;;11.98;98.52;98327.16;4936598;28;103697;-67
2021/09/19 03:34:22;;;;;;;7.57;6.97;;;;;;;12.12;96.80;98329.50;4917950;28;103200;-67
2021/09/19 03:36:50;;;;;;;6.73;6.13;;;;;;;11.73;98.58;98329.31;4938761;28;103050;-67
2021/09/19 03:39:18;;;;;;;6.43;5.93;;;;;;;11.87;98.36;98329.88;4937671;28;104000;-69
2021/09/19 03:41:48;;;;;;;6.00;5.50;;;;;;;12.02;97.71;98317.97;4938250;28;103283;-67
2021/09/19 03:44:18;;;;;;;7.93;7.23;;;;;;;12.08;96.03;98320.13;4936978;28;103219;-67
2021/09/19 03:46:46;;;;;;;9.27;8.37;;;;;;;11.84;96.88;98319.53;4936395;28;102818;-67
2021/09/19 03:49:14;;;;;;;9.10;8.27;;;;;;;11.73;97.52;98319.59;4937981;28;102897;-66
2021/09/19 03:51:42;;;;;;;7.70;7.00;;;;;;;11.83;97.71;98323.13;4937268;28;103197;-67
2021/09/19 03:54:10;;;;;;;6.53;6.00;;;;;;;11.95;96.65;98326.56;4921249;28;103216;-68
2021/09/19 03:56:38;;;;;;;9.00;8.20;;;;;;;11.78;94.83;98332.44;4930021;28;102702;-68
2021/09/19 03:59:07;;;;;;;7.77;7.07;;;;;;;11.42;98.97;98320.38;4935442;28;104316;-68
2021/09/19 04:01:35;;;;;;;6.53;6.00;;;;;;;11.69;98.81;98335.78;4934308;28;103059;-63
2021/09/19 04:04:04;;;;;;;5.40;4.90;;;;;;;11.84;96.81;98330.13;4937353;28;103073;-67
2021/09/19 04:06:32;;;;;;;6.30;5.80;;;;;;;11.82;96.18;98332.03;4936301;28;102556;-63
2021/09/19 04:09:00;;;;;;;7.70;6.93;;;;;;;11.90;94.61;98323.47;4925159;28;102768;-66
2021/09/19 04:11:28;;;;;;;6.37;5.80;;;;;;;11.97;94.39;98330.78;4943203;28;103773;-62
2021/09/19 04:13:56;;;;;;;5.50;5.00;;;;;;;11.99;94.17;98339.41;4923239;28;102967;-62
2021/09/19 04:16:25;;;;;;;8.10;7.47;;;;;;;11.98;94.41;98337.75;4940618;28;103785;-62
2021/09/19 04:18:53;;;;;;;7.87;7.13;;;;;;;12.02;94.76;98338.31;4923890;28;103281;-62
2021/09/19 04:21:21;;;;;;;8.80;8.00;;;;;;;11.95;95.91;98342.47;4939433;28;103413;-67
2021/09/19 04:23:49;;;;;;;6.07;5.67;;;;;;;12.01;95.72;98348.06;4941482;28;103249;-67
2021/09/19 04:26:17;;;;;;;7.53;6.83;;;;;;;12.03;95.86;98346.16;4923420;28;104003;-67
2021/09/19 04:28:45;;;;;;;8.83;8.03;;;;;;;12.06;95.20;98345.88;4940391;28;102807;-66
2021/09/19 04:31:13;;;;;;;10.83;9.93;;;;;;;11.60;97.04;98342.69;4940144;28;105336;-67
2021/09/19 04:33:42;;;;;;;9.70;8.67;;;;;;;11.67;97.42;98346.50;4941204;28;103202;-67
2021/09/19 04:36:10;;;;;;;11.50;10.40;;;;;;;11.51;96.52;98346.06;4939005;28;102639;-67
2021/09/19 04:38:39;;;;;;;12.30;11.10;;;;;;;10.79;100.00;98348.38;4933847;28;102678;-67
2021/09/19 04:41:07;;;;;;;11.27;10.23;;;;;;;10.82;100.00;98344.63;4939976;28;103308;-66
2021/09/19 04:43:35;;;;;;;7.80;7.20;;;;;;;11.00;100.00;98344.00;4940038;28;103213;-67
2021/09/19 04:46:03;;;;;;;7.80;7.10;;;;;;;11.32;100.00;98344.09;4933574;28;102650;-66
2021/09/19 04:48:31;;;;;;;6.83;6.30;;;;;;;11.45;98.72;98354.53;4939901;28;102717;-67
2021/09/19 04:51:00;;;;;;;9.67;8.87;;;;;;;11.42;96.44;98360.91;4937271;28;103269;-67
2021/09/19 04:53:28;;;;;;;9.90;9.00;;;;;;;11.35;96.55;98364.16;4940146;28;103371;-67
2021/09/19 04:55:56;;;;;;;11.67;10.43;;;;;;;11.23;97.41;98371.25;4938872;28;102628;-67
2021/09/19 04:58:24;;;;;;;7.80;7.07;;;;;;;11.33;97.56;98377.50;4941269;28;102913;-68
2021/09/19 05:00:52;;;;;;;9.87;8.97;;;;;;;11.16;96.15;98379.81;4939808;28;104038;-67
2021/09/19 05:03:20;;;;;;;10.67;9.77;;;;;;;10.52;100.00;98376.09;4940998;28;103261;-67
2021/09/19 05:05:49;;;;;;;9.87;8.97;;;;;;;10.66;100.00;98366.16;4918588;28;102653;-67
2021/09/19 05:08:18;;;;;;;8.43;7.73;;;;;;;10.94;100.00;98375.41;4941074;28;103910;-67
2021/09/19 05:10:46;;;;;;;8.53;7.83;;;;;;;10.94;100.00;98370.09;4939730;28;103309;-67
2021/09/19 05:13:18;;;;;;;7.90;7.20;;;;;;;11.18;99.23;98368.16;4938994;28;103016;-67
2021/09/19 05:15:46;;;;;;;11.77;10.60;;;;;;;10.75;98.87;98369.88;4940697;28;102666;-67
2021/09/19 05:18:14;;;;;;;9.40;8.57;;;;;;;10.92;100.00;98366.72;4940700;28;104011;-68
2021/09/19 05:20:42;;;;;;;11.40;10.40;;;;;;;10.79;99.56;98372.16;4939355;28;103321;-66
2021/09/19 05:23:10;;;;;;;9.33;8.40;;;;;;;10.93;100.00;98369.25;4935533;28;103335;-67
2021/09/19 05:25:40;;;;;;;6.73;6.13;;;;;;;10.99;99.46;98371.44;4934829;28;102798;-67
2021/09/19 05:28:08;;;;;;;7.33;6.73;;;;;;;11.24;98.44;98366.81;4932399;28;102678;-65
2021/09/19 05:30:36;;;;;;;7.00;6.40;;;;;;;11.41;96.76;98380.38;4929088;28;103315;-65
2021/09/19 05:33:04;;;;;;;6.00;5.50;;;;;;;11.53;95.37;98379.41;4933299;28;103276;-65
2021/09/19 05:35:32;;;;;;;6.03;5.50;;;;;;;11.65;94.61;98393.41;4932752;28;102749;-66
2021/09/19 05:38:05;;;;;;;6.63;6.03;;;;;;;11.63;94.84;98382.13;4932114;28;103984;-65
2021/09/19 05:40:33;;;;;;;7.50;6.90;;;;;;;11.70;94.87;98386.00;4930618;28;103293;-65
2021/09/19 05:43:03;;;;;;;7.40;6.80;;;;;;;11.62;95.45;98383.09;4937086;28;103339;-65
2021/09/19 05:45:32;;;;;;;7.10;6.50;;;;;;;11.70;96.48;98386.00;4934122;28;103199;-65
2021/09/19 05:48:00;;;;;;;6.17;5.67;;;;;;;11.86;95.49;98377.63;4935228;28;103873;-65
2021/09/19 05:50:29;;;;;;;8.73;7.93;;;;;;;11.96;95.09;98381.19;4932556;28;103304;-65
2021/09/19 05:52:57;;;;;;;7.83;7.10;;;;;;;12.10;94.62;98388.81;4902853;28;103226;-67
2021/09/19 05:55:25;;;;;;;7.27;6.57;;;;;;;12.20;94.31;98385.28;4933658;28;102666;-67
2021/09/19 05:57:53;;;;;;;8.80;8.00;;;;;;;12.26;93.96;98388.38;4927401;28;102732;-67
2021/09/19 06:00:22;;;;;;;7.47;6.77;;;;;;;12.19;94.80;98380.13;4926392;28;103701;-68
2021/09/19 06:02:51;;;;;;;8.80;8.00;;;;;;;12.18;94.84;98387.22;4918453;28;103325;-68
2021/09/19 06:05:19;;;;;;;8.13;7.40;;;;;;;12.35;94.32;98374.38;4936555;28;102596;-65
2021/09/19 06:07:47;;;;;;;12.50;9.33;;;;;;;12.37;93.45;98383.88;4933867;28;103712;-68
2021/09/19 06:10:15;;;;;;;9.90;8.90;;;;;;;12.36;94.18;98394.59;4931013;28;103309;-67
2021/09/19 06:12:43;;;;;;;9.20;8.40;;;;;;;12.47;93.83;98382.13;4931150;28;103214;-68
2021/09/19 06:15:12;;;;;;;7.87;7.27;;;;;;;12.50;93.58;98384.50;4939565;28;102679;-69
2021/09/19 06:17:41;;;;;;;6.23;5.73;;;;;;;12.67;92.82;98383.06;4929437;28;102598;-66
2021/09/19 06:20:09;;;;;;;8.13;6.83;;;;;;;12.86;91.89;98377.84;4935144;28;103905;-68
2021/09/19 06:22:38;;;;;;;6.37;5.77;;;;;;;12.94;91.28;98379.88;4937967;28;103207;-69
2021/09/19 06:25:08;;;;;;;7.07;6.50;;;;;;;13.04;91.43;98370.13;4930248;28;102701;-68
2021/09/19 06:27:36;;;;;;;6.50;5.90;;;;;;;13.07;92.24;98375.16;4919850;28;102787;-69
2021/09/19 06:30:05;;;;;;;10.60;9.60;;;;;;;13.10;91.36;98369.63;4937500;28;103311;-68
2021/09/19 06:32:33;;;;;;;11.40;10.30;;;;;;;12.40;98.57;98374.81;4915047;28;103260;-69
2021/09/19 06:35:03;;;;;;;11.17;10.07;;;;;;;12.25;99.81;98368.16;4937002;28;102697;-66
2021/09/19 06:37:31;;;;;;;9.20;8.40;;;;;;;12.39;100.00;98365.19;4937498;28;103057;-68
2021/09/19 06:39:59;;;;;;;10.07;9.23;;;;;;;12.30;100.00;98368.59;4937530;28;103465;-69
2021/09/19 06:42:28;;;;;;;7.37;6.67;;;;;;;12.75;98.03;98370.84;4938306;28;103218;-69
2021/09/19 06:44:56;;;;;;;9.33;8.53;;;;;;;12.45;98.72;98362.03;4934810;28;102861;-66
2021/09/19 06:47:24;;;;;;;6.73;6.23;;;;;;;12.83;98.41;98362.22;4937984;28;102626;-66
2021/09/19 06:49:53;;;;;;;8.70;7.90;;;;;;;13.01;96.84;98368.59;4938117;28;103283;-66
2021/09/19 06:52:23;;;;;;;7.00;6.40;;;;;;;13.41;95.52;98370.41;4938177;28;103242;-65
2021/09/19 06:54:51;;;;;;;9.57;8.67;;;;;;;13.05;97.48;98372.63;4934597;28;102754;-66
2021/09/19 06:57:19;;;;;;;7.13;6.53;;;;;;;13.41;95.77;98378.38;4936739;28;102902;-66
2021/09/19 06:59:47;;;;;;;9.57;8.67;;;;;;;12.97;98.45;98375.13;4932396;28;103941;-66
2021/09/19 07:02:15;;;;;;;10.07;9.07;;;;;;;13.11;97.34;98372.13;4932315;28;104034;-66
2021/09/19 07:04:43;;;;;;;9.23;8.33;;;;;;;13.46;94.54;98381.44;4940446;28;103024;-63
2021/09/19 07:07:11;;;;;;;8.93;8.23;;;;;;;13.14;95.69;98374.50;4920725;28;102797;-62
2021/09/19 07:09:41;;;;;;;9.03;8.13;;;;;;;13.33;95.22;98382.53;4937169;28;103360;-62
2021/09/19 07:12:09;;;;;;;6.80;6.20;;;;;;;13.80;94.20;98370.34;4936819;28;103218;-62
2021/09/19 07:14:37;;;;;;;8.10;7.43;;;;;;;13.75;94.22;98372.53;4935895;28;102649;-62
2021/09/19 07:17:06;;;;;;;6.27;5.77;;;;;;;14.40;91.31;98374.50;4938823;28;103570;-67
2021/09/19 07:19:34;;;;;;;6.40;5.90;;;;;;;14.90;87.45;98376.94;4935347;28;103252;-62
2021/09/19 07:22:02;;;;;;;7.37;6.73;;;;;;;14.94;85.63;98386.28;4933916;28;103151;-62
2021/09/19 07:24:30;;;;;;;6.50;6.00;;;;;;;14.55;88.29;98376.72;4931201;28;102938;-62
2021/09/19 07:27:00;;;;;;;6.33;5.83;;;;;;;14.89;86.59;98380.56;4935164;28;102617;-68
2021/09/19 07:29:29;;;;;;;5.30;4.87;;;;;;;15.02;87.73;98378.41;4931266;28;103049;-68
2021/09/19 07:32:01;;;;;;;6.33;5.83;;;;;;;15.69;84.39;98370.06;4938729;28;103184;-68
2021/09/19 07:34:30;;;;;;;6.60;6.00;;;;;;;16.22;81.70;98375.44;4935713;28;102737;-68
2021/09/19 07:36:59;;;;;;;6.23;5.33;;;;;;;15.34;83.31;98388.63;4937961;28;103647;-62
2021/09/19 07:39:28;;;;;;;6.03;5.47;;;;;;;15.12;84.30;98392.50;4939736;28;103478;-62
2021/09/19 07:41:56;;;;;;;5.67;5.20;;;;;;;14.93;84.13;98393.41;4922295;28;102688;-62
2021/09/19 07:44:27;;;;;;;6.07;5.47;;;;;;;15.52;82.26;98394.88;4921384;28;102962;-62
2021/09/19 07:46:55;;;;;;;5.00;4.60;;;;;;;16.03;81.49;98394.22;4942367;28;102717;-62
2021/09/19 07:49:25;;;;;;;4.40;4.10;;;;;;;16.78;77.79;98397.22;4942560;28;103206;-62
2021/09/19 07:51:54;;;;;;;4.53;3.80;;;;;;;17.53;75.77;98398.25;4941713;28;103292;-62
2021/09/19 07:54:23;;;;;;;5.10;4.00;;;;;;;17.95;74.06;98391.06;4920106;28;104256;-62
2021/09/19 07:56:51;;;;;;;4.77;4.43;;;;;;;18.36;72.26;98386.56;4944832;28;102765;-62
2021/09/19 07:59:19;;;;;;;4.17;3.87;;;;;;;18.66;71.10;98393.13;4932119;28;103346;-62
2021/09/19 08:01:49;;;;;;;4.25;3.95;;;;;;;18.30;72.01;98397.13;4916410;28;103328;-62
2021/09/19 08:04:17;;;;;;;5.05;4.65;;;;;;;18.10;72.29;98390.41;4941389;28;102708;-63
2021/09/19 08:06:46;;;;;;;5.00;4.00;;;;;;;18.29;72.54;98395.44;4939739;28;102704;-68
2021/09/19 08:09:14;;;;;;;4.03;3.72;;;;;;;19.05;70.94;98410.13;4934763;28;103298;-68
2021/09/19 08:11:42;;;;;;;4.78;4.43;;;;;;;18.58;69.39;98413.69;4920073;28;103368;-69
2021/09/19 08:14:11;;;;;;;4.38;3.97;;;;;;;19.57;69.04;98414.97;4940378;28;102764;-62
2021/09/19 08:16:41;;;;;;;3.55;3.25;;;;;;;19.48;68.07;98421.41;4937141;28;102635;-63
2021/09/19 08:19:11;;;;;;;5.00;4.47;;;;;;;19.45;68.08;98411.03;4937829;28;103246;-68
2021/09/19 08:21:40;;;;;;;4.22;3.85;;;;;;;19.97;66.90;98420.16;4939737;28;103299;-69
2021/09/19 08:24:11;;;;;;;3.90;3.60;;;;;;;20.45;66.06;98420.84;4935822;28;102699;-68
2021/09/19 08:26:39;;;;;;;3.95;3.65;;;;;;;21.11;65.35;98415.56;4936316;28;103120;-70
2021/09/19 08:29:09;;;;;;;4.95;3.63;;;;;;;20.00;64.86;98414.44;4934736;28;103085;-70
2021/09/19 08:31:38;;;;;;;4.45;4.13;;;;;;;20.35;62.90;98401.50;4914534;28;103401;-69
2021/09/19 08:34:08;;;;;;;5.03;4.60;;;;;;;19.30;66.12;98402.84;4940693;28;102683;-70
2021/09/19 08:36:38;;;;;;;4.22;3.92;;;;;;;18.48;69.12;98400.47;4938797;28;104099;-70
2021/09/19 08:39:09;;;;;;;4.20;3.90;;;;;;;18.61;70.08;98400.78;4922264;28;103043;-69
2021/09/19 08:41:38;;;;;;;3.58;3.28;;;;;;;20.13;67.13;98400.41;4932848;28;103316;-70
2021/09/19 08:44:06;;;;;;;4.22;3.83;;;;;;;20.55;64.89;98397.28;4938631;28;102623;-71
2021/09/19 08:46:37;;;;;;;3.97;3.67;;;;;;;21.10;63.29;98400.50;4939712;28;102690;-64
2021/09/19 08:49:08;;;;;;;3.65;3.35;;;;;;;21.33;63.15;98395.84;4937663;28;103355;-69
2021/09/19 08:51:37;;;;;;;3.78;3.47;;;;;;;21.49;59.59;98399.34;4915824;28;103045;-70
2021/09/19 08:54:06;;;;;;;3.28;3.08;;;;;;;21.25;60.55;98403.16;4938898;28;103778;-71
2021/09/19 08:56:34;;;;;;;4.10;3.70;;;;;;;20.51;61.03;98399.50;4917502;28;103979;-63
2021/09/19 08:59:02;;;;;;;3.50;3.17;;;;;;;21.04;63.84;98403.88;4940209;28;103343;-70
2021/09/19 09:01:31;;;;;;;3.35;3.15;;;;;;;21.85;60.39;98403.75;4917661;28;103196;-70
2021/09/19 09:04:04;;;;;;;3.58;3.28;;;;;;;22.03;59.55;98399.84;4924573;28;102730;-70
2021/09/19 09:06:39;;;;;;;3.95;3.55;;;;;;;21.97;59.47;98403.28;4938071;28;103914;-69
2021/09/19 09:09:17;;;;;;;4.07;3.78;;;;;;;22.30;60.49;98410.69;4934081;28;103663;-65
2021/09/19 09:12:01;;;;;;;3.30;3.05;;;;;;;22.40;59.17;98416.56;4939273;28;103316;-65
2021/09/19 09:14:30;;;;;;;4.15;3.72;;;;;;;22.04;59.09;98410.41;4935826;28;102617;-66
2021/09/19 09:17:12;;;;;;;3.70;3.40;;;;;;;22.50;57.55;98400.94;4938430;28;102655;-65
2021/09/19 09:19:40;;;;;;;3.97;3.47;;;;;;;22.59;57.70;98406.19;4938142;28;103722;-66
2021/09/19 09:22:10;;;;;;;3.72;3.42;;;;;;;21.51;61.71;98402.69;4935640;28;103354;-65
2021/09/19 09:24:40;;;;;;;3.33;3.03;;;;;;;21.36;63.33;98400.84;4938752;28;102683;-66
2021/09/19 09:27:19;;;;;;;3.88;3.58;;;;;;;20.06;62.29;98400.31;4921716;28;102769;-66
2021/09/19 09:30:06;;;;;;;4.47;4.13;;;;;;;20.21;64.36;98401.19;4936238;28;102632;-66
2021/09/19 09:32:58;;;;;;;4.05;3.75;;;;;;;21.97;60.27;98396.06;4937746;28;103067;-66
2021/09/19 09:35:35;;;;;;;2.65;2.45;;;;;;;22.99;56.90;98400.13;4935922;28;105322;-66
2021/09/19 09:38:19;;;;;;;4.00;3.70;;;;;;;22.07;58.46;98407.34;4937817;28;102670;-66
2021/09/19 09:40:48;;;;;;;3.75;3.45;;;;;;;22.07;59.72;98407.34;4936978;28;103227;-66
2021/09/19 09:43:18;;;;;;;3.30;2.80;;;;;;;22.50;57.52;98400.94;4920892;28;103228;-66
2021/09/19 09:45:47;;;;;;;3.63;2.70;;;;;;;22.79;57.84;98404.53;4919389;28;102760;-66
2021/09/19 09:48:27;;;;;;;3.35;3.15;;;;;;;22.89;58.01;98397.78;4935354;28;102696;-65
2021/09/19 09:50:58;;;;;;;4.30;3.35;;;;;;;23.00;56.89;98408.00;4935300;28;103312;-65
2021/09/19 09:53:29;;;;;;;3.40;3.13;;;;;;;22.32;57.51;98403.25;4937031;28;103318;-65
2021/09/19 09:56:00;;;;;;;4.07;3.15;;;;;;;22.82;56.95;98409.53;4934540;28;102743;-65
2021/09/19 09:58:28;;;;;;;3.13;2.92;;;;;;;23.48;56.29;98408.13;4935467;28;102607;-65
2021/09/19 10:00:57;;;;;;;3.80;3.60;;;;;;;22.97;54.21;98402.19;4921103;28;103368;-65
2021/09/19 10:03:26;;;;;;;3.42;3.15;;;;;;;22.29;56.23;98402.78;4917502;28;103892;-65
2021/09/19 10:05:55;;;;;;;2.90;2.70;;;;;;;23.31;55.27;98404.91;4935575;28;102682;-65
2021/09/19 10:08:45;;;;;;;2.53;2.30;;;;;;;22.80;56.93;98401.63;4935234;28;103794;-64
2021/09/19 10:11:13;;;;;;;3.30;3.00;;;;;;;23.17;56.91;98397.75;4932203;28;103368;-65
2021/09/19 10:13:45;;;;;;;6.28;4.25;;;;;;;21.15;59.44;98397.22;4935487;28;103125;-64
2021/09/19 10:16:17;;;;;;;3.22;3.03;;;;;;;22.04;59.18;98394.25;4937402;28;104005;-66
2021/09/19 10:18:50;;;;;;;3.83;3.53;;;;;;;22.76;56.41;98386.09;4934777;28;102760;-66
2021/09/19 10:21:23;;;;;;;2.95;2.75;;;;;;;23.40;55.19;98390.28;4934053;28;104007;-66
2021/09/19 10:23:55;;;;;;;3.75;3.45;;;;;;;23.32;54.35;98378.78;4935454;28;103620;-65
2021/09/19 10:26:28;;;;;;;4.03;3.63;;;;;;;23.55;52.88;98388.25;4932488;28;102786;-65
2021/09/19 10:29:00;;;;;;;4.43;3.28;;;;;;;23.29;54.83;98385.41;4933088;28;103135;-63
2021/09/19 10:31:32;;;;;;;2.88;2.50;;;;;;;23.62;54.60;98381.03;4937263;28;104074;-64
2021/09/19 10:34:04;;;;;;;2.70;2.50;;;;;;;23.58;55.37;98379.75;4918022;28;103459;-65
2021/09/19 10:36:39;;;;;;;3.63;3.33;;;;;;;22.66;56.97;98377.50;4934981;28;102637;-64
2021/09/19 10:39:24;;;;;;;4.82;3.85;;;;;;;22.94;56.93;98370.25;4936264;28;102791;-65
2021/09/19 10:42:28;;;;;;;3.60;3.30;;;;;;;23.87;54.07;98377.81;4935626;28;103330;-65
2021/09/19 10:45:04;;;;;;;3.78;3.47;;;;;;;22.56;55.88;98382.34;4934423;28;103325;-66
2021/09/19 10:47:36;;;;;;;3.60;3.30;;;;;;;22.93;56.83;98364.03;4934403;28;104033;-66
2021/09/19 10:50:22;;;;;;;4.78;4.38;;;;;;;21.98;57.21;98368.13;4936701;28;102834;-66
2021/09/19 10:52:54;;;;;;;4.47;4.13;;;;;;;21.82;58.89;98373.72;4932031;28;103088;-66
2021/09/19 10:55:27;;;;;;;16.73;13.75;;;;;;;22.62;56.26;98368.97;4935702;28;103349;-66
2021/09/19 10:58:01;;;;;;;5.55;5.05;;;;;;;23.14;55.15;98365.81;4935659;28;102686;-64
2021/09/19 11:00:31;;;;;;;3.70;3.40;;;;;;;22.65;56.68;98360.53;4921016;28;102771;-66
2021/09/19 11:03:08;;;;;;;5.40;4.90;;;;;;;21.85;57.98;98365.28;4935583;28;103410;-66
2021/09/19 11:05:42;;;;;;;4.30;3.90;;;;;;;23.26;55.34;98358.84;4934972;28;103349;-66
2021/09/19 11:08:16;;;;;;;4.05;3.75;;;;;;;22.65;56.46;98355.16;4918143;28;102811;-64
2021/09/19 11:11:22;;;;;;;2.75;2.55;;;;;;;23.38;56.02;98354.56;4933619;28;102671;-64
2021/09/19 11:13:56;;;;;;;5.05;4.07;;;;;;;21.60;59.01;98359.41;4931568;28;103238;-64
2021/09/19 11:16:42;;;;;;;5.10;4.20;;;;;;;22.04;58.15;98348.53;4931928;28;103429;-64
2021/09/19 11:19:14;;;;;;;4.95;4.07;;;;;;;21.79;59.36;98341.81;4936199;28;102603;-66
2021/09/19 11:21:47;;;;;;;4.75;4.35;;;;;;;21.74;59.21;98344.25;4937214;28;103621;-66
2021/09/19 11:24:24;;;;;;;4.90;4.32;;;;;;;22.25;56.85;98335.09;4934464;28;103425;-67
2021/09/19 11:26:55;;;;;;;4.63;4.15;;;;;;;22.66;56.18;98335.25;4936493;28;103276;-67
2021/09/19 11:29:26;;;;;;;4.85;4.47;;;;;;;21.15;59.88;98333.63;4940094;28;102603;-66
2021/09/19 11:31:58;;;;;;;5.20;4.80;;;;;;;20.21;62.67;98336.84;4922123;28;102679;-66
2021/09/19 11:34:27;;;;;;;3.30;3.10;;;;;;;21.74;61.14;98323.59;4937963;28;104012;-66